createdAt,value
2023-03-01T00:01:58.670Z,100580.28
2023-03-01T00:04:26.139Z,100587.22
2023-03-01T00:06:53.289Z,100582.44
2023-03-01T00:09:20.475Z,100583.22
2023-03-01T00:11:47.914Z,100588.50
2023-03-01T00:14:17.251Z,100577.78
2023-03-01T00:16:45.390Z,100580.06
2023-03-01T00:19:13.897Z,100579.50
2023-03-01T00:21:41.349Z,100579.78
2023-03-01T00:24:08.535Z,100585.69
2023-03-01T00:26:36.168Z,100598.03
2023-03-01T00:29:03.522Z,100589.75
2023-03-01T00:31:31.820Z,100590.06
2023-03-01T00:34:05.087Z,100592.28
2023-03-01T00:36:33.616Z,100593.44
2023-03-01T00:39:01.431Z,100592.59
2023-03-01T00:41:28.631Z,100591.53
2023-03-01T00:43:55.975Z,100586.37
2023-03-01T00:46:24.916Z,100588.12
2023-03-01T00:48:52.158Z,100593.66
2023-03-01T00:51:20.368Z,100580.47
2023-03-01T00:53:48.602Z,100578.56
2023-03-01T00:56:16.027Z,100577.56
2023-03-01T00:58:44.719Z,100581.97
2023-03-01T01:01:18.181Z,100571.25
2023-03-01T01:03:45.537Z,100572.75
2023-03-01T01:06:23.402Z,100573.25
2023-03-01T01:08:50.881Z,100570.16
2023-03-01T01:11:18.297Z,100569.88
2023-03-01T01:13:46.042Z,100568.19
2023-03-01T01:16:13.696Z,100561.34
2023-03-01T01:18:41.541Z,100560.06
2023-03-01T01:21:10.296Z,100558.38
2023-03-01T01:23:38.096Z,100561.41
2023-03-01T01:26:06.497Z,100556.13
2023-03-01T01:28:33.709Z,100561.50
2023-03-01T01:31:00.930Z,100545.66
2023-03-01T01:33:28.385Z,100542.69
2023-03-01T01:35:55.762Z,100540.22
2023-03-01T01:38:23.121Z,100541.06
2023-03-01T01:40:51.339Z,100537.72
2023-03-01T01:43:29.344Z,100540.03
2023-03-01T01:45:58.337Z,100535.66
2023-03-01T01:48:25.775Z,100534.41
2023-03-01T01:50:55.972Z,100535.53
2023-03-01T01:53:23.561Z,100524.97
2023-03-01T01:55:53.482Z,100533.22
2023-03-01T01:58:20.790Z,100526.34
2023-03-01T02:00:48.781Z,100521.16
2023-03-01T02:03:18.941Z,100523.06
2023-03-01T02:05:55.454Z,100515.94
2023-03-01T02:08:24.165Z,100505.50
2023-03-01T02:10:51.607Z,100508.72
2023-03-01T02:13:18.771Z,100508.44
2023-03-01T02:15:45.964Z,100511.28
2023-03-01T02:18:15.709Z,100517.16
2023-03-01T02:20:50.841Z,100509.75
2023-03-01T02:23:18.339Z,100522.81
2023-03-01T02:25:52.258Z,100521.81
2023-03-01T02:28:22.788Z,100520.16
2023-03-01T02:31:09.089Z,100506.72
2023-03-01T02:33:38.060Z,100501.97
2023-03-01T02:36:06.394Z,100494.75
2023-03-01T02:38:33.557Z,100495.75
2023-03-01T02:41:00.998Z,100494.75
2023-03-01T02:43:28.889Z,100494.37
2023-03-01T02:45:58.491Z,100489.94
2023-03-01T02:48:25.978Z,100494.00
2023-03-01T02:51:02.701Z,100491.37
2023-03-01T02:53:30.141Z,100486.06
2023-03-01T02:55:57.315Z,100484.06
2023-03-01T02:58:24.714Z,100491.56
2023-03-01T03:00:52.444Z,100481.22
2023-03-01T03:03:20.600Z,100477.09
2023-03-01T03:05:48.685Z,100476.44
2023-03-01T03:08:25.157Z,100471.09
2023-03-01T03:10:52.691Z,100480.53
2023-03-01T03:13:20.255Z,100477.84
2023-03-01T03:15:47.388Z,100480.53
2023-03-01T03:18:15.871Z,100479.75
2023-03-01T03:20:43.516Z,100473.19
2023-03-01T03:23:10.740Z,100464.03
2023-03-01T03:25:38.809Z,100464.06
2023-03-01T03:28:10.610Z,100468.22
2023-03-01T03:30:39.911Z,100463.91
2023-03-01T03:33:07.653Z,100461.63
2023-03-01T03:35:35.921Z,100459.31
2023-03-01T03:38:06.722Z,100464.50
2023-03-01T03:40:35.504Z,100472.00
2023-03-01T03:43:03.602Z,100467.50
2023-03-01T03:45:30.838Z,100463.22
2023-03-01T03:47:58.313Z,100464.72
2023-03-01T03:50:25.583Z,100471.53
2023-03-01T03:52:52.706Z,100463.34
2023-03-01T03:55:20.419Z,100464.56
2023-03-01T03:57:52.430Z,100465.81
2023-03-01T04:00:20.768Z,100465.91
2023-03-01T04:02:48.452Z,100462.53
2023-03-01T04:05:16.273Z,100461.13
2023-03-01T04:07:43.766Z,100456.66
2023-03-01T04:10:12.255Z,100455.84
2023-03-01T04:12:39.469Z,100456.25
2023-03-01T04:15:14.060Z,100454.37
2023-03-01T04:17:42.355Z,100452.44
2023-03-01T04:20:12.070Z,100456.94
2023-03-01T04:22:39.725Z,100460.31
2023-03-01T04:25:07.905Z,100456.00
2023-03-01T04:27:35.181Z,100468.38
2023-03-01T04:30:02.725Z,100471.03
2023-03-01T04:32:30.881Z,100463.75
2023-03-01T04:34:58.053Z,100464.47
2023-03-01T04:37:28.416Z,100461.94
2023-03-01T04:39:55.859Z,100466.91
2023-03-01T04:42:22.965Z,100470.22
2023-03-01T04:44:52.299Z,100476.78
2023-03-01T04:47:19.730Z,100460.31
2023-03-01T04:49:46.863Z,100465.38
2023-03-01T04:52:14.076Z,100457.50
2023-03-01T04:54:41.555Z,100459.81
2023-03-01T04:57:08.722Z,100452.91
2023-03-01T04:59:37.157Z,100467.06
2023-03-01T05:02:04.657Z,100456.56
2023-03-01T05:04:31.942Z,100463.34
2023-03-01T05:06:59.840Z,100461.88
2023-03-01T05:09:27.367Z,100458.34
2023-03-01T05:11:54.627Z,100459.28
2023-03-01T05:14:21.817Z,100465.34
2023-03-01T05:16:49.269Z,100467.41
2023-03-01T05:19:16.528Z,100466.94
2023-03-01T05:22:07.135Z,100460.03
2023-03-01T05:24:35.603Z,100470.72
2023-03-01T05:27:02.743Z,100468.25
2023-03-01T05:29:30.376Z,100471.56
2023-03-01T05:32:02.084Z,100461.84
2023-03-01T05:34:30.834Z,100464.03
2023-03-01T05:36:58.286Z,100456.91
2023-03-01T05:39:26.784Z,100469.88
2023-03-01T05:41:54.722Z,100463.87
2023-03-01T05:44:22.158Z,100469.50
2023-03-01T05:46:49.303Z,100457.41
2023-03-01T05:49:17.049Z,100461.00
2023-03-01T05:51:44.770Z,100459.66
2023-03-01T05:54:11.934Z,100457.78
2023-03-01T05:56:39.225Z,100457.72
2023-03-01T05:59:06.707Z,100469.12
2023-03-01T06:01:34.302Z,100470.91
2023-03-01T06:04:01.810Z,100467.66
2023-03-01T06:06:29.427Z,100473.66
2023-03-01T06:08:56.629Z,100477.06
2023-03-01T06:11:24.057Z,100472.91
2023-03-01T06:13:51.222Z,100481.69
2023-03-01T06:16:18.425Z,100472.56
2023-03-01T06:18:46.047Z,100477.81
2023-03-01T06:21:13.258Z,100479.31
2023-03-01T06:23:40.380Z,100477.13
2023-03-01T06:26:08.880Z,100484.41
2023-03-01T06:28:36.290Z,100484.94
2023-03-01T06:31:03.706Z,100482.22
2023-03-01T06:33:31.174Z,100485.44
2023-03-01T06:35:58.340Z,100488.59
2023-03-01T06:38:25.532Z,100485.91
2023-03-01T06:40:54.146Z,100492.00
2023-03-01T06:43:21.659Z,100491.53
2023-03-01T06:45:48.828Z,100500.44
2023-03-01T06:48:16.329Z,100494.84
2023-03-01T06:50:43.491Z,100505.28
2023-03-01T06:53:10.725Z,100499.19
2023-03-01T06:55:38.132Z,100491.06
2023-03-01T06:58:05.308Z,100497.22
2023-03-01T07:00:32.559Z,100500.78
2023-03-01T07:03:00.979Z,100500.41
2023-03-01T07:05:28.426Z,100495.25
2023-03-01T07:07:56.540Z,100496.88
2023-03-01T07:10:24.109Z,100505.22
2023-03-01T07:12:51.337Z,100509.25
2023-03-01T07:15:18.492Z,100508.13
2023-03-01T07:17:48.646Z,100492.03
2023-03-01T07:20:16.286Z,100496.75
2023-03-01T07:22:43.540Z,100502.31
2023-03-01T07:25:11.057Z,100497.47
2023-03-01T07:27:38.288Z,100503.09
2023-03-01T07:30:05.738Z,100503.44
2023-03-01T07:32:33.209Z,100503.88
2023-03-01T07:35:00.405Z,100508.16
2023-03-01T07:37:27.568Z,100498.72
2023-03-01T07:39:55.198Z,100501.34
2023-03-01T07:42:22.360Z,100498.59
2023-03-01T07:44:49.517Z,100496.16
2023-03-01T07:47:16.921Z,100497.72
2023-03-01T07:49:44.087Z,100501.87
2023-03-01T07:52:12.412Z,100500.97
2023-03-01T07:54:39.905Z,100493.12
2023-03-01T07:57:07.034Z,100490.06
2023-03-01T07:59:34.529Z,100492.13
2023-03-01T08:02:01.968Z,100488.53
2023-03-01T08:04:29.490Z,100491.34
2023-03-01T08:06:56.653Z,100493.06
2023-03-01T08:09:23.814Z,100490.56
2023-03-01T08:11:51.385Z,100495.56
2023-03-01T08:14:18.586Z,100488.50
2023-03-01T08:16:45.735Z,100489.62
2023-03-01T08:19:13.140Z,100482.91
2023-03-01T08:21:40.298Z,100483.25
2023-03-01T08:24:07.837Z,100484.19
2023-03-01T08:26:35.301Z,100485.91
2023-03-01T08:29:02.595Z,100485.13
2023-03-01T08:31:34.113Z,100482.66
2023-03-01T08:34:01.806Z,100477.37
2023-03-01T08:36:33.275Z,100478.00
2023-03-01T08:39:00.876Z,100480.66
2023-03-01T08:41:28.344Z,100482.44
2023-03-01T08:43:59.635Z,100475.47
2023-03-01T08:46:31.393Z,100478.38
2023-03-01T08:48:59.087Z,100472.56
2023-03-01T08:51:26.418Z,100471.37
2023-03-01T08:53:53.607Z,100466.66
2023-03-01T08:56:21.040Z,100459.97
2023-03-01T08:58:48.784Z,100460.75
2023-03-01T09:01:16.929Z,100447.56
2023-03-01T09:03:44.424Z,100436.22
2023-03-01T09:06:11.818Z,100430.63
2023-03-01T09:08:39.498Z,100441.78
2023-03-01T09:11:07.478Z,100444.97
2023-03-01T09:13:34.841Z,100443.25
2023-03-01T09:16:02.627Z,100436.25
2023-03-01T09:18:30.091Z,100429.84
2023-03-01T09:21:08.184Z,100429.16
2023-03-01T09:23:37.419Z,100425.03
2023-03-01T09:26:04.687Z,100417.28
2023-03-01T09:28:31.880Z,100416.78
2023-03-01T09:31:00.478Z,100412.94
2023-03-01T09:33:28.312Z,100416.19
2023-03-01T09:36:02.645Z,100413.63
2023-03-01T09:38:30.391Z,100406.91
2023-03-01T09:40:57.582Z,100398.25
2023-03-01T09:43:31.281Z,100403.00
2023-03-01T09:46:06.819Z,100393.75
2023-03-01T09:48:34.725Z,100395.00
2023-03-01T09:51:02.653Z,100389.41
2023-03-01T09:53:32.986Z,100382.63
2023-03-01T09:56:01.015Z,100379.22
2023-03-01T09:58:30.685Z,100382.13
2023-03-01T10:00:59.176Z,100378.12
2023-03-01T10:03:36.285Z,100382.63
2023-03-01T10:06:06.560Z,100380.56
2023-03-01T10:08:54.184Z,100384.41
2023-03-01T10:11:29.693Z,100383.56
2023-03-01T10:14:02.876Z,100381.50
2023-03-01T10:17:08.448Z,100365.47
2023-03-01T10:19:46.016Z,100359.47
2023-03-01T10:22:32.490Z,100360.88
2023-03-01T10:25:01.104Z,100355.13
2023-03-01T10:27:35.859Z,100354.38
2023-03-01T10:30:21.989Z,100350.28
2023-03-01T10:32:51.240Z,100346.19
2023-03-01T10:35:29.342Z,100346.47
2023-03-01T10:38:07.136Z,100343.72
2023-03-01T10:40:35.019Z,100345.13
2023-03-01T10:43:06.090Z,100335.16
2023-03-01T10:45:36.666Z,100333.41
2023-03-01T10:48:10.340Z,100336.31
2023-03-01T10:50:40.336Z,100328.59
2023-03-01T10:53:17.996Z,100326.81
2023-03-01T10:55:45.136Z,100325.00
2023-03-01T10:58:15.515Z,100318.94
2023-03-01T11:01:02.410Z,100322.16
2023-03-01T11:03:33.860Z,100310.12
2023-03-01T11:06:01.029Z,100310.50
2023-03-01T11:08:35.127Z,100313.12
2023-03-01T11:11:07.285Z,100313.50
2023-03-01T11:13:34.483Z,100310.81
2023-03-01T11:16:06.885Z,100303.84
2023-03-01T11:18:46.838Z,100306.44
2023-03-01T11:21:14.526Z,100300.28
2023-03-01T11:23:42.038Z,100300.59
2023-03-01T11:26:11.525Z,100298.78
2023-03-01T11:28:39.807Z,100291.31
2023-03-01T11:31:09.961Z,100294.50
2023-03-01T11:33:49.292Z,100300.50
2023-03-01T11:36:36.324Z,100299.38
2023-03-01T11:39:04.767Z,100300.78
2023-03-01T11:41:33.521Z,100300.84
2023-03-01T11:44:02.526Z,100299.16
2023-03-01T11:46:33.034Z,100289.34
2023-03-01T11:49:10.127Z,100285.19
2023-03-01T11:51:40.252Z,100286.41
2023-03-01T11:54:11.221Z,100276.56
2023-03-01T11:56:45.256Z,100281.00
2023-03-01T11:59:31.083Z,100283.38
2023-03-01T12:01:58.257Z,100281.37
2023-03-01T12:04:25.838Z,100265.72
2023-03-01T12:07:02.556Z,100277.63
2023-03-01T12:09:35.772Z,100272.72
2023-03-01T12:12:02.848Z,100259.41
2023-03-01T12:14:36.005Z,100255.38
2023-03-01T12:17:07.238Z,100249.31
2023-03-01T12:19:37.742Z,100241.28
2023-03-01T12:22:05.535Z,100235.41
2023-03-01T12:24:51.656Z,100228.62
2023-03-01T12:27:21.865Z,100229.84
2023-03-01T12:29:52.116Z,100220.44
2023-03-01T12:32:22.490Z,100223.72
2023-03-01T12:35:25.162Z,100224.78
2023-03-01T12:37:52.575Z,100218.75
2023-03-01T12:40:38.373Z,100223.63
2023-03-01T12:43:14.635Z,100221.47
2023-03-01T12:46:00.660Z,100221.13
2023-03-01T12:48:31.830Z,100209.78
2023-03-01T12:51:00.862Z,100206.78
2023-03-01T12:53:28.269Z,100210.34
2023-03-01T12:56:07.227Z,100221.75
2023-03-01T12:58:48.613Z,100217.28
2023-03-01T13:01:22.470Z,100210.09
2023-03-01T13:04:08.589Z,100215.75
2023-03-01T13:07:02.068Z,100210.50
2023-03-01T13:09:32.431Z,100206.00
2023-03-01T13:11:59.572Z,100206.31
2023-03-01T13:14:26.716Z,100206.31
2023-03-01T13:16:54.193Z,100195.31
2023-03-01T13:19:25.039Z,100195.06
2023-03-01T13:21:55.134Z,100192.09
2023-03-01T13:24:28.520Z,100187.06
2023-03-01T13:27:08.034Z,100188.44
2023-03-01T13:29:47.862Z,100180.19
2023-03-01T13:32:38.002Z,100177.56
2023-03-01T13:35:33.084Z,100172.03
2023-03-01T13:38:20.701Z,100174.75
2023-03-01T13:40:51.261Z,100175.47
2023-03-01T13:43:28.965Z,100166.28
2023-03-01T13:45:56.456Z,100157.31
2023-03-01T13:48:24.572Z,100154.81
2023-03-01T13:50:52.853Z,100147.12
2023-03-01T13:53:20.916Z,100148.66
2023-03-01T13:55:58.668Z,100147.53
2023-03-01T13:58:28.768Z,100150.13
2023-03-01T14:00:57.052Z,100148.13
2023-03-01T14:03:24.593Z,100144.00
2023-03-01T14:06:11.295Z,100144.56
2023-03-01T14:08:44.244Z,100140.09
2023-03-01T14:11:14.559Z,100134.59
2023-03-01T14:13:48.062Z,100131.13
2023-03-01T14:16:25.443Z,100130.78
2023-03-01T14:19:05.132Z,100124.63
2023-03-01T14:21:32.343Z,100119.94
2023-03-01T14:24:00.125Z,100118.91
2023-03-01T14:26:27.558Z,100124.72
2023-03-01T14:28:54.815Z,100118.25
2023-03-01T14:31:52.041Z,100104.31
2023-03-01T14:34:21.466Z,100108.72
2023-03-01T14:36:48.883Z,100093.66
2023-03-01T14:39:26.120Z,100091.41
2023-03-01T14:41:53.633Z,100090.19
2023-03-01T14:44:23.952Z,100085.94
2023-03-01T14:46:55.206Z,100078.63
2023-03-01T14:49:23.421Z,100084.00
2023-03-01T14:52:09.262Z,100086.44
2023-03-01T14:54:48.584Z,100081.66
2023-03-01T14:57:20.262Z,100080.22
2023-03-01T14:59:48.778Z,100079.38
2023-03-01T15:02:20.317Z,100077.59
2023-03-01T15:04:48.089Z,100083.50
2023-03-01T15:07:15.264Z,100078.13
2023-03-01T15:09:42.484Z,100073.19
2023-03-01T15:12:33.376Z,100074.72
2023-03-01T15:15:04.788Z,100078.31
2023-03-01T15:17:33.608Z,100081.97
2023-03-01T15:20:01.307Z,100079.69
2023-03-01T15:22:28.496Z,100081.94
2023-03-01T15:24:55.941Z,100076.94
2023-03-01T15:27:24.514Z,100082.13
2023-03-01T15:29:58.922Z,100088.56
2023-03-01T15:32:31.168Z,100083.34
2023-03-01T15:35:01.893Z,100077.78
2023-03-01T15:37:38.828Z,100081.44
2023-03-01T15:40:32.263Z,100083.44
2023-03-01T15:43:00.331Z,100077.56
2023-03-01T15:45:28.876Z,100070.97
2023-03-01T15:48:00.122Z,100071.03
2023-03-01T15:50:28.772Z,100078.03
2023-03-01T15:52:56.308Z,100070.59
2023-03-01T15:55:24.760Z,100074.75
2023-03-01T15:57:58.803Z,100071.91
2023-03-01T16:00:25.989Z,100073.56
2023-03-01T16:02:53.541Z,100077.75
2023-03-01T16:05:25.265Z,100082.78
2023-03-01T16:07:53.018Z,100084.00
2023-03-01T16:10:20.709Z,100093.06
2023-03-01T16:12:48.480Z,100091.75
2023-03-01T16:15:20.236Z,100098.69
2023-03-01T16:17:47.814Z,100090.63
2023-03-01T16:20:27.904Z,100095.00
2023-03-01T16:22:55.954Z,100088.66
2023-03-01T16:25:23.103Z,100095.66
2023-03-01T16:27:50.831Z,100099.91
2023-03-01T16:30:19.560Z,100091.94
2023-03-01T16:32:47.214Z,100097.91
2023-03-01T16:35:15.437Z,100095.34
2023-03-01T16:37:43.222Z,100100.19
2023-03-01T16:40:17.453Z,100105.28
2023-03-01T16:42:44.883Z,100102.16
2023-03-01T16:45:22.872Z,100108.28
2023-03-01T16:47:51.175Z,100109.62
2023-03-01T16:50:18.567Z,100102.94
2023-03-01T16:52:45.806Z,100109.19
2023-03-01T16:55:13.297Z,100117.84
2023-03-01T16:57:41.653Z,100114.38
2023-03-01T17:00:14.171Z,100111.19
2023-03-01T17:02:42.371Z,100125.53
2023-03-01T17:05:10.879Z,100122.75
2023-03-01T17:07:38.600Z,100117.47
2023-03-01T17:10:07.053Z,100116.03
2023-03-01T17:12:34.917Z,100115.00
2023-03-01T17:15:02.214Z,100122.03
2023-03-01T17:17:29.720Z,100117.03
2023-03-01T17:19:57.313Z,100119.03
2023-03-01T17:22:24.731Z,100118.69
2023-03-01T17:24:52.151Z,100114.34
2023-03-01T17:27:19.598Z,100113.56
2023-03-01T17:29:46.964Z,100113.12
2023-03-01T17:32:14.679Z,100124.59
2023-03-01T17:34:41.963Z,100115.06
2023-03-01T17:37:09.155Z,100119.03
2023-03-01T17:39:36.696Z,100129.81
2023-03-01T17:42:05.206Z,100122.09
2023-03-01T17:44:35.442Z,100120.16
2023-03-01T17:47:03.591Z,100122.22
2023-03-01T17:49:30.969Z,100119.91
2023-03-01T17:51:58.281Z,100119.44
2023-03-01T17:54:25.865Z,100120.41
2023-03-01T17:56:53.225Z,100110.91
2023-03-01T17:59:20.558Z,100114.78
2023-03-01T18:01:48.223Z,100111.34
2023-03-01T18:04:15.975Z,100113.06
2023-03-01T18:06:43.207Z,100110.97
2023-03-01T18:09:11.848Z,100111.22
2023-03-01T18:11:39.595Z,100113.84
2023-03-01T18:14:06.978Z,100103.38
2023-03-01T18:16:34.630Z,100107.84
2023-03-01T18:19:02.663Z,100107.63
2023-03-01T18:21:30.595Z,100099.88
2023-03-01T18:23:59.584Z,100105.25
2023-03-01T18:26:27.824Z,100107.75
2023-03-01T18:28:58.206Z,100108.78
2023-03-01T18:31:25.740Z,100105.69
2023-03-01T18:33:54.904Z,100110.78
2023-03-01T18:36:23.484Z,100103.09
2023-03-01T18:38:50.705Z,100111.84
2023-03-01T18:41:18.301Z,100108.84
2023-03-01T18:43:45.649Z,100111.25
2023-03-01T18:46:12.909Z,100106.97
2023-03-01T18:48:40.591Z,100108.78
2023-03-01T18:51:11.805Z,100102.47
2023-03-01T18:53:39.101Z,100103.41
2023-03-01T18:56:07.603Z,100097.16
2023-03-01T18:58:34.903Z,100099.78
2023-03-01T19:01:04.317Z,100095.44
2023-03-01T19:03:32.037Z,100099.13
2023-03-01T19:06:01.378Z,100104.38
2023-03-01T19:08:29.372Z,100098.53
2023-03-01T19:11:02.256Z,100099.03
2023-03-01T19:13:30.472Z,100099.16
2023-03-01T19:16:04.240Z,100101.84
2023-03-01T19:18:31.705Z,100107.25
2023-03-01T19:21:03.995Z,100110.38
2023-03-01T19:23:34.966Z,100099.44
2023-03-01T19:26:03.714Z,100110.69
2023-03-01T19:28:31.137Z,100105.47
2023-03-01T19:31:11.412Z,100108.00
2023-03-01T19:33:41.562Z,100112.09
2023-03-01T19:36:09.579Z,100113.16
2023-03-01T19:38:37.139Z,100108.56
2023-03-01T19:41:05.719Z,100120.53
2023-03-01T19:43:32.995Z,100125.81
2023-03-01T19:46:00.240Z,100127.50
2023-03-01T19:48:28.419Z,100124.63
2023-03-01T19:50:55.860Z,100126.88
2023-03-01T19:53:23.179Z,100128.16
2023-03-01T19:55:53.140Z,100130.72
2023-03-01T19:58:20.355Z,100138.59
2023-03-01T20:00:47.541Z,100137.34
2023-03-01T20:03:15.310Z,100137.25
2023-03-01T20:05:43.784Z,100144.28
2023-03-01T20:08:11.033Z,100140.28
2023-03-01T20:10:38.664Z,100141.28
2023-03-01T20:13:06.103Z,100137.78
2023-03-01T20:15:33.233Z,100139.81
2023-03-01T20:18:00.695Z,100140.66
2023-03-01T20:20:28.052Z,100142.69
2023-03-01T20:22:55.241Z,100146.66
2023-03-01T20:25:22.979Z,100143.13
2023-03-01T20:27:51.784Z,100137.25
2023-03-01T20:30:18.979Z,100147.22
2023-03-01T20:32:46.627Z,100141.75
2023-03-01T20:35:13.850Z,100143.50
2023-03-01T20:37:41.032Z,100151.56
2023-03-01T20:40:09.607Z,100151.72
2023-03-01T20:42:36.883Z,100147.16
2023-03-01T20:45:04.678Z,100145.22
2023-03-01T20:47:32.338Z,100151.25
2023-03-01T20:50:01.567Z,100153.44
2023-03-01T20:52:32.339Z,100155.56
2023-03-01T20:55:04.966Z,100155.94
2023-03-01T20:57:32.177Z,100155.75
2023-03-01T20:59:59.310Z,100161.25
2023-03-01T21:02:26.816Z,100159.03
2023-03-01T21:04:54.152Z,100154.47
2023-03-01T21:07:21.282Z,100157.16
2023-03-01T21:09:48.768Z,100161.50
2023-03-01T21:12:16.091Z,100164.94
2023-03-01T21:14:43.288Z,100164.28
2023-03-01T21:17:11.882Z,100165.63
2023-03-01T21:19:39.892Z,100167.38
2023-03-01T21:22:07.200Z,100166.75
2023-03-01T21:24:34.665Z,100167.72
2023-03-01T21:27:06.518Z,100170.03
2023-03-01T21:29:34.467Z,100164.16
2023-03-01T21:32:04.739Z,100166.00
2023-03-01T21:34:32.351Z,100160.00
2023-03-01T21:36:59.480Z,100155.50
2023-03-01T21:39:28.948Z,100161.25
2023-03-01T21:41:56.641Z,100160.09
2023-03-01T21:44:24.545Z,100167.25
2023-03-01T21:46:52.326Z,100182.03
2023-03-01T21:49:19.648Z,100176.97
2023-03-01T21:51:46.806Z,100170.03
2023-03-01T21:54:15.477Z,100175.66
2023-03-01T21:56:43.163Z,100160.66
2023-03-01T21:59:20.766Z,100162.84
2023-03-01T22:01:48.484Z,100164.84
2023-03-01T22:04:16.104Z,100153.22
2023-03-01T22:06:44.190Z,100158.09
2023-03-01T22:09:18.796Z,100158.25
2023-03-01T22:11:48.714Z,100160.19
2023-03-01T22:14:17.036Z,100164.38
2023-03-01T22:16:45.639Z,100156.53
2023-03-01T22:19:13.706Z,100162.37
2023-03-01T22:21:41.556Z,100160.06
2023-03-01T22:24:08.848Z,100161.59
2023-03-01T22:26:37.699Z,100158.84
2023-03-01T22:29:06.515Z,100162.28
2023-03-01T22:31:33.731Z,100149.69
2023-03-01T22:34:01.423Z,100165.75
2023-03-01T22:36:28.690Z,100155.06
2023-03-01T22:39:00.351Z,100164.00
2023-03-01T22:41:29.269Z,100157.03
2023-03-01T22:43:56.489Z,100155.22
2023-03-01T22:46:26.741Z,100166.50
2023-03-01T22:48:54.219Z,100157.72
2023-03-01T22:51:31.157Z,100160.84
2023-03-01T22:53:58.751Z,100155.59
2023-03-01T22:56:28.900Z,100157.41
2023-03-01T22:58:57.727Z,100153.50
2023-03-01T23:01:26.035Z,100155.41
2023-03-01T23:03:53.217Z,100153.59
2023-03-01T23:06:21.515Z,100148.66
2023-03-01T23:08:52.463Z,100142.56
2023-03-01T23:11:19.901Z,100148.66
2023-03-01T23:13:47.128Z,100154.06
2023-03-01T23:16:15.020Z,100147.50
2023-03-01T23:18:42.471Z,100148.16
2023-03-01T23:21:14.167Z,100160.84
2023-03-01T23:23:41.712Z,100155.44
2023-03-01T23:26:09.208Z,100151.69
2023-03-01T23:28:40.367Z,100159.81
2023-03-01T23:31:09.461Z,100160.78
2023-03-01T23:33:39.405Z,100162.69
2023-03-01T23:36:18.725Z,100158.00
2023-03-01T23:38:46.686Z,100160.94
2023-03-01T23:41:14.697Z,100156.53
2023-03-01T23:43:45.499Z,100161.19
2023-03-01T23:46:14.418Z,100161.59
2023-03-01T23:48:42.434Z,100151.22
2023-03-01T23:51:09.591Z,100151.47
2023-03-01T23:53:38.044Z,100156.03
2023-03-01T23:56:05.486Z,100147.88
2023-03-01T23:58:32.610Z,100146.63
